Time;durP1;ratioP1;P1;durP2;ratioP2;P2;SDS_P1;SDS_P2;PMS_P1;PMS_P2;Temp;Humidity;BMP_temperature;BMP_pressure;BME280_temperature;BME280_humidity;BME280_pressure;Samples;Min_cycle;Max_cycle;Signal;HPM_P1;HPM_P2
2022/04/27 00:00:31;;;;;;;9.53;4.30;;;8.40;71.70;;;;;;5093327;28;20093;-75
2022/04/27 00:02:57;;;;;;;8.80;3.80;;;8.30;71.80;;;;;;5094135;28;20514;-74
2022/04/27 00:05:24;;;;;;;11.80;4.80;;;8.20;72.00;;;;;;5093013;28;20050;-75
2022/04/27 00:07:50;;;;;;;11.53;3.97;;;8.20;72.10;;;;;;5092613;28;20463;-74
2022/04/27 00:10:18;;;;;;;8.97;3.67;;;8.20;72.40;;;;;;5094074;28;20042;-74
2022/04/27 00:12:45;;;;;;;10.13;3.73;;;8.20;72.40;;;;;;5093981;28;20024;-75
2022/04/27 00:15:11;;;;;;;9.60;3.33;;;8.20;72.50;;;;;;5093385;28;20024;-75
2022/04/27 00:17:37;;;;;;;11.93;3.93;;;8.20;72.60;;;;;;5075227;28;20032;-75
2022/04/27 00:20:04;;;;;;;10.27;4.00;;;8.20;72.80;;;;;;5094030;28;20020;-74
2022/04/27 00:22:30;;;;;;;5.83;2.90;;;8.10;72.80;;;;;;5094417;28;20083;-75
2022/04/27 00:25:00;;;;;;;8.67;3.03;;;8.00;72.70;;;;;;5092870;28;20031;-74
2022/04/27 00:27:27;;;;;;;7.90;3.23;;;8.10;73.40;;;;;;5092691;28;20119;-74
2022/04/27 00:29:53;;;;;;;7.90;3.63;;;8.00;72.90;;;;;;5092781;28;20073;-74
2022/04/27 00:32:18;;;;;;;8.10;3.40;;;8.00;73.00;;;;;;5092620;28;20424;-74
2022/04/27 00:34:44;;;;;;;7.97;3.00;;;8.00;73.20;;;;;;5075568;28;20081;-74
2022/04/27 00:37:09;;;;;;;6.37;2.50;;;7.80;73.20;;;;;;5093922;28;20461;-74
2022/04/27 00:39:35;;;;;;;8.87;3.40;;;7.90;73.40;;;;;;5075612;28;20078;-74
2022/04/27 00:42:15;;;;;;;6.53;3.03;;;7.90;73.60;;;;;;5093841;28;20060;-74
2022/04/27 00:44:44;;;;;;;8.10;2.97;;;7.90;73.60;;;;;;5092630;28;20044;-74
2022/04/27 00:47:17;;;;;;;7.97;2.93;;;7.90;73.60;;;;;;5075940;28;20028;-74
2022/04/27 00:49:48;;;;;;;9.77;3.90;;;7.90;73.70;;;;;;5092502;28;20059;-74
2022/04/27 00:52:15;;;;;;;7.17;2.93;;;7.80;73.70;;;;;;5092341;28;20028;-74
2022/04/27 00:54:42;;;;;;;6.93;3.17;;;7.80;73.80;;;;;;5092448;28;20101;-74
2022/04/27 00:57:08;;;;;;;8.53;3.07;;;7.80;73.80;;;;;;5075413;28;20040;-74
2022/04/27 00:59:34;;;;;;;11.27;3.17;;;7.70;73.90;;;;;;5092143;28;20029;-74
2022/04/27 01:02:01;;;;;;;6.27;3.07;;;7.70;74.10;;;;;;5092180;28;20376;-74
2022/04/27 01:04:27;;;;;;;8.73;3.33;;;7.70;74.20;;;;;;5093480;28;20044;-74
2022/04/27 01:06:53;;;;;;;7.03;2.57;;;7.60;74.30;;;;;;5092243;28;20028;-74
2022/04/27 01:09:19;;;;;;;8.33;3.30;;;7.70;74.50;;;;;;5093450;28;20200;-74
2022/04/27 01:11:45;;;;;;;9.17;3.73;;;7.60;74.60;;;;;;5075187;28;20060;-74
2022/04/27 01:14:11;;;;;;;9.43;3.50;;;7.60;74.70;;;;;;5093274;28;20031;-74
2022/04/27 01:16:40;;;;;;;9.40;3.33;;;7.50;74.90;;;;;;5092121;28;20028;-74
2022/04/27 01:19:05;;;;;;;7.70;3.97;;;7.40;75.00;;;;;;5092108;28;20551;-74
2022/04/27 01:21:33;;;;;;;8.93;3.27;;;7.40;75.20;;;;;;5075073;28;20056;-74
2022/04/27 01:23:59;;;;;;;5.80;3.53;;;7.40;75.30;;;;;;5092124;28;20411;-74
2022/04/27 01:26:24;;;;;;;7.10;3.00;;;7.30;75.40;;;;;;5091982;28;20434;-74
2022/04/27 01:28:50;;;;;;;7.83;3.20;;;7.30;75.60;;;;;;5094670;28;20089;-75
2022/04/27 01:31:16;;;;;;;7.93;3.23;;;7.30;75.60;;;;;;5062579;28;20381;-74
2022/04/27 01:33:41;;;;;;;7.20;3.03;;;7.20;75.80;;;;;;5095887;28;20024;-73
2022/04/27 01:36:10;;;;;;;7.77;3.50;;;7.20;75.90;;;;;;5095587;28;20024;-74
2022/04/27 01:38:43;;;;;;;11.37;3.83;;;7.20;76.00;;;;;;5095603;28;20020;-74
2022/04/27 01:41:10;;;;;;;8.80;4.25;;;7.20;76.10;;;;;;5096996;28;20124;-74
2022/04/27 01:43:36;;;;;;;8.50;3.40;;;7.20;76.30;;;;;;5096866;28;20028;-74
2022/04/27 01:46:05;;;;;;;9.80;3.83;;;7.10;76.40;;;;;;5095453;28;20043;-74
2022/04/27 01:48:31;;;;;;;9.27;3.13;;;7.10;76.50;;;;;;5095821;28;20542;-74
2022/04/27 01:50:57;;;;;;;8.27;4.00;;;7.00;76.50;;;;;;5062672;28;20130;-73
2022/04/27 01:56:07;;;;;;;7.80;3.47;;;7.00;76.90;;;;;;5081707;28;20035;-74
2022/04/27 01:58:33;;;;;;;8.67;3.63;;;7.00;76.90;;;;;;5095268;28;20032;-74
2022/04/27 02:00:59;;;;;;;6.30;3.47;;;7.00;77.00;;;;;;5096640;28;20020;-74
2022/04/27 02:03:25;;;;;;;8.70;4.07;;;6.90;77.10;;;;;;5095570;28;20056;-74
2022/04/27 02:05:52;;;;;;;9.27;4.40;;;6.90;77.30;;;;;;5095169;28;20028;-74
2022/04/27 02:08:18;;;;;;;8.97;3.87;;;6.90;77.50;;;;;;5096494;28;20020;-74
2022/04/27 02:10:44;;;;;;;7.30;4.37;;;6.80;77.60;;;;;;5096395;28;20042;-74
2022/04/27 02:13:11;;;;;;;8.03;3.67;;;6.80;77.70;;;;;;5095212;28;20024;-74
2022/04/27 02:15:37;;;;;;;8.33;3.87;;;6.80;77.90;;;;;;5096324;28;20031;-74
2022/04/27 02:18:03;;;;;;;7.63;3.67;;;6.70;78.00;;;;;;5094755;28;20472;-74
2022/04/27 02:20:29;;;;;;;9.97;5.07;;;6.80;78.10;;;;;;5078113;28;20030;-74
2022/04/27 02:22:55;;;;;;;10.27;4.33;;;6.70;78.30;;;;;;5096327;28;20040;-74
2022/04/27 02:25:24;;;;;;;12.27;4.67;;;6.60;78.50;;;;;;5096009;28;20111;-74
2022/04/27 02:27:50;;;;;;;7.90;3.97;;;6.50;78.50;;;;;;5096134;28;20504;-74
2022/04/27 02:30:17;;;;;;;9.00;4.17;;;6.60;78.80;;;;;;5094795;28;20040;-74
2022/04/27 02:32:45;;;;;;;8.33;4.53;;;6.50;78.90;;;;;;5096608;28;20027;-73
2022/04/27 02:35:11;;;;;;;10.07;4.40;;;6.50;79.10;;;;;;5094906;28;20032;-74
2022/04/27 02:37:37;;;;;;;8.17;3.87;;;6.50;80.00;;;;;;5095800;28;20027;-74
2022/04/27 02:40:04;;;;;;;7.93;4.43;;;6.50;79.60;;;;;;5095550;28;20357;-74
2022/04/27 02:42:29;;;;;;;10.00;5.00;;;6.40;79.60;;;;;;5095797;28;20024;-74
2022/04/27 02:44:56;;;;;;;12.03;4.57;;;6.40;79.80;;;;;;5094644;28;20016;-74
2022/04/27 02:47:22;;;;;;;9.73;4.43;;;6.40;80.10;;;;;;5077660;28;20515;-73
2022/04/27 02:52:32;;;;;;;8.80;3.75;;;6.40;80.60;;;;;;5095603;28;20070;-73
2022/04/27 02:54:57;;;;;;;8.33;4.17;;;6.30;80.50;;;;;;5094548;28;20036;-74
2022/04/27 02:57:23;;;;;;;8.47;4.30;;;6.30;80.50;;;;;;5094171;28;20063;-74
2022/04/27 02:59:49;;;;;;;12.03;4.20;;;6.30;80.70;;;;;;5094383;28;20395;-74
2022/04/27 03:02:15;;;;;;;9.50;4.10;;;6.30;80.70;;;;;;5077418;28;20031;-74
2022/04/27 03:04:40;;;;;;;9.47;4.33;;;6.20;80.70;;;;;;5077248;28;20028;-74
2022/04/27 03:07:07;;;;;;;11.03;4.17;;;6.20;80.80;;;;;;5077216;28;20040;-74
2022/04/27 03:09:33;;;;;;;12.03;4.90;;;6.20;81.00;;;;;;5095281;28;20081;-74
2022/04/27 03:11:58;;;;;;;7.83;4.80;;;6.20;81.30;;;;;;5095248;28;20028;-74
2022/04/27 03:14:24;;;;;;;10.17;4.47;;;6.10;81.40;;;;;;5092814;28;20055;-74
2022/04/27 03:16:52;;;;;;;7.97;4.70;;;6.20;81.50;;;;;;5073344;28;20068;-74
2022/04/27 03:19:18;;;;;;;12.70;5.30;;;6.00;81.50;;;;;;5056564;28;20461;-74
2022/04/27 03:21:44;;;;;;;11.27;5.00;;;6.00;81.70;;;;;;5074704;28;20499;-73
2022/04/27 03:24:10;;;;;;;10.10;4.93;;;6.00;81.90;;;;;;5061197;28;20037;-74
2022/04/27 03:26:36;;;;;;;12.97;5.53;;;6.00;82.70;;;;;;5084436;28;20032;-74
2022/04/27 03:29:01;;;;;;;11.07;5.40;;;5.90;82.20;;;;;;5077128;28;20071;-74
2022/04/27 03:31:27;;;;;;;10.20;5.37;;;5.90;82.20;;;;;;5076852;28;20028;-74
2022/04/27 03:33:53;;;;;;;12.13;5.23;;;5.80;82.30;;;;;;5076483;28;20028;-73
2022/04/27 03:36:18;;;;;;;8.93;4.53;;;5.80;83.10;;;;;;5060089;28;20036;-74
2022/04/27 03:38:44;;;;;;;9.03;5.10;;;5.80;82.60;;;;;;5076659;28;20116;-74
2022/04/27 03:41:10;;;;;;;10.50;5.30;;;5.80;82.70;;;;;;5076971;28;20030;-74
2022/04/27 03:43:36;;;;;;;9.67;5.13;;;5.80;83.50;;;;;;5095174;28;20081;-74
2022/04/27 03:46:02;;;;;;;9.63;4.90;;;5.70;82.90;;;;;;5094545;28;20024;-73
2022/04/27 03:48:28;;;;;;;8.37;5.00;;;5.70;83.00;;;;;;5076262;28;20032;-73
2022/04/27 03:50:53;;;;;;;9.57;4.83;;;5.70;83.20;;;;;;5075884;28;20059;-74
2022/04/27 03:53:19;;;;;;;11.27;5.83;;;5.70;84.20;;;;;;5076293;28;20023;-74
2022/04/27 03:55:46;;;;;;;9.80;4.97;;;5.50;84.30;;;;;;5094566;28;20035;-74
2022/04/27 03:58:12;;;;;;;11.53;5.50;;;5.60;84.20;;;;;;5060073;28;20036;-74
2022/04/27 04:00:37;;;;;;;7.83;5.17;;;5.60;84.30;;;;;;5059361;28;20074;-73
2022/04/27 04:03:04;;;;;;;8.13;4.60;;;5.50;84.60;;;;;;5059495;28;20035;-74
2022/04/27 04:05:30;;;;;;;10.90;4.90;;;5.50;85.00;;;;;;5075935;28;20131;-73
2022/04/27 04:07:56;;;;;;;11.87;5.13;;;5.50;85.30;;;;;;5059267;28;20503;-73
2022/04/27 04:10:22;;;;;;;8.57;4.60;;;5.50;85.60;;;;;;5059547;28;20461;-73
2022/04/27 04:12:48;;;;;;;10.73;4.90;;;5.50;85.90;;;;;;5076697;28;20123;-73
2022/04/27 04:15:14;;;;;;;9.30;4.77;;;5.60;86.10;;;;;;5059274;28;20060;-74
2022/04/27 04:17:44;;;;;;;11.53;5.67;;;5.50;86.20;;;;;;5093843;28;20036;-73
2022/04/27 04:20:14;;;;;;;9.03;4.53;;;5.50;86.30;;;;;;5076050;28;20024;-74
2022/04/27 04:22:41;;;;;;;8.53;4.83;;;5.50;86.40;;;;;;5073854;28;20063;-74
2022/04/27 04:30:36;;;;;;;9.23;4.93;;;5.50;86.80;;;;;;5092558;28;20096;-72
2022/04/27 04:33:01;;;;;;;9.87;5.40;;;5.40;87.50;;;;;;5076018;28;20115;-72
2022/04/27 04:35:27;;;;;;;11.77;5.70;;;5.40;87.00;;;;;;5075318;28;20128;-72
2022/04/27 04:37:54;;;;;;;9.47;4.97;;;5.40;87.10;;;;;;5093836;28;20036;-73
2022/04/27 04:40:20;;;;;;;10.43;5.50;;;5.30;87.20;;;;;;5075444;28;20115;-73
2022/04/27 04:42:45;;;;;;;11.10;6.03;;;5.30;87.20;;;;;;5075669;28;20103;-74
2022/04/27 04:45:11;;;;;;;9.53;5.40;;;5.30;87.40;;;;;;5075500;28;20029;-71
2022/04/27 04:47:36;;;;;;;10.60;5.57;;;5.30;87.60;;;;;;5094001;28;20028;-73
2022/04/27 04:50:02;;;;;;;6.77;4.57;;;5.30;87.80;;;;;;5093761;28;20054;-73
2022/04/27 04:52:28;;;;;;;8.43;5.00;;;5.40;88.10;;;;;;5075916;28;20024;-73
2022/04/27 04:54:53;;;;;;;10.17;5.47;;;5.40;88.30;;;;;;5075699;28;20059;-72
2022/04/27 04:57:19;;;;;;;11.33;5.60;;;5.30;88.40;;;;;;5058827;28;20039;-72
2022/04/27 04:59:45;;;;;;;9.77;4.77;;;5.40;88.60;;;;;;5075707;28;20032;-73
2022/04/27 05:02:10;;;;;;;12.17;4.70;;;5.50;88.90;;;;;;5075944;28;20024;-72
2022/04/27 05:04:36;;;;;;;12.37;6.10;;;5.30;88.80;;;;;;5079786;28;20434;-72
2022/04/27 05:07:02;;;;;;;11.13;5.73;;;5.40;88.90;;;;;;5097730;28;20032;-78
2022/04/27 05:09:27;;;;;;;15.10;5.53;;;5.40;89.00;;;;;;5079391;28;20024;-78
2022/04/27 05:11:53;;;;;;;9.60;5.07;;;5.40;89.20;;;;;;5079423;28;20085;-79
2022/04/27 05:14:19;;;;;;;10.00;5.17;;;5.30;89.40;;;;;;5097514;28;20035;-79
2022/04/27 05:16:44;;;;;;;11.10;5.83;;;5.40;89.60;;;;;;5062610;28;20392;-78
2022/04/27 05:19:10;;;;;;;11.27;5.57;;;5.40;89.80;;;;;;5079309;28;20028;-78
2022/04/27 05:21:35;;;;;;;10.73;5.73;;;5.50;89.90;;;;;;5078781;28;20024;-79
2022/04/27 05:24:01;;;;;;;8.10;5.20;;;5.50;90.00;;;;;;5078963;28;20881;-79
2022/04/27 05:26:27;;;;;;;13.00;5.73;;;5.40;90.00;;;;;;5097373;28;20029;-79
2022/04/27 05:31:55;;;;;;;12.05;5.22;;;5.60;90.20;;;;;;5077211;28;20495;-77
2022/04/27 05:34:22;;;;;;;9.38;5.75;;;5.60;90.20;;;;;;5058818;28;20400;-77
2022/04/27 05:36:48;;;;;;;11.77;5.97;;;5.70;90.30;;;;;;5076760;28;20017;-77
2022/04/27 05:39:14;;;;;;;11.57;5.60;;;5.70;90.30;;;;;;5058832;28;20029;-78
2022/04/27 05:41:41;;;;;;;11.60;5.80;;;5.80;90.40;;;;;;5058695;28;20115;-79
2022/04/27 05:44:09;;;;;;;14.33;6.80;;;5.80;90.50;;;;;;5042404;28;20170;-78
2022/04/27 05:46:36;;;;;;;18.30;6.37;;;5.80;90.60;;;;;;5058712;28;20470;-79
2022/04/27 05:49:02;;;;;;;11.10;6.57;;;5.80;90.70;;;;;;5058669;28;20097;-79
2022/04/27 05:51:27;;;;;;;10.17;5.73;;;5.80;90.80;;;;;;5077111;28;20024;-79
2022/04/27 05:53:53;;;;;;;8.57;5.60;;;5.80;90.90;;;;;;5075266;28;20546;-79
2022/04/27 05:56:19;;;;;;;12.77;6.60;;;5.90;90.90;;;;;;5057965;28;20056;-79
2022/04/27 05:58:45;;;;;;;14.20;6.40;;;5.90;91.10;;;;;;5058405;28;20024;-79
2022/04/27 06:01:11;;;;;;;12.30;6.90;;;6.00;91.20;;;;;;5076126;28;20082;-79
2022/04/27 06:03:38;;;;;;;12.83;6.97;;;6.00;91.20;;;;;;5058333;28;20019;-80
2022/04/27 06:06:03;;;;;;;15.83;7.03;;;6.10;91.30;;;;;;5057249;28;20043;-80
2022/04/27 06:08:29;;;;;;;11.93;6.80;;;6.20;91.40;;;;;;5109932;28;20547;-79
2022/04/27 06:10:55;;;;;;;15.53;7.87;;;6.10;91.40;;;;;;5096346;28;20480;-79
2022/04/27 06:13:20;;;;;;;13.13;7.50;;;6.20;91.80;;;;;;5078179;28;20051;-80
2022/04/27 06:15:46;;;;;;;13.87;6.50;;;6.30;91.60;;;;;;5077400;28;20028;-79
2022/04/27 06:18:11;;;;;;;10.43;6.03;;;6.30;91.60;;;;;;5096085;28;20056;-80
2022/04/27 06:20:37;;;;;;;10.53;6.27;;;6.50;91.60;;;;;;5096157;28;20473;-79
2022/04/27 06:23:03;;;;;;;11.33;6.63;;;6.40;91.60;;;;;;5095748;28;20063;-80
2022/04/27 06:25:30;;;;;;;12.13;7.13;;;6.50;91.60;;;;;;5077902;28;20468;-79
2022/04/27 06:27:56;;;;;;;13.53;7.53;;;6.60;91.60;;;;;;5096236;28;20036;-79
2022/04/27 06:30:22;;;;;;;13.27;6.90;;;6.60;91.60;;;;;;5078314;28;20036;-79
2022/04/27 06:32:47;;;;;;;10.53;6.33;;;6.70;91.70;;;;;;5095994;28;20476;-79
2022/04/27 06:35:13;;;;;;;11.90;7.33;;;6.80;91.70;;;;;;5077928;28;20028;-78
2022/04/27 06:37:42;;;;;;;11.83;6.63;;;6.90;91.70;;;;;;5077865;28;20056;-78
2022/04/27 06:40:08;;;;;;;17.83;7.00;;;6.90;91.60;;;;;;5095579;28;20024;-77
2022/04/27 06:42:34;;;;;;;13.70;7.73;;;6.90;91.60;;;;;;5083424;28;20460;-78
2022/04/27 06:45:04;;;;;;;14.33;7.17;;;7.00;91.70;;;;;;5098029;28;20084;-77
2022/04/27 06:47:30;;;;;;;16.17;8.07;;;7.10;91.70;;;;;;5097747;28;20020;-77
2022/04/27 06:49:55;;;;;;;14.37;7.90;;;7.10;91.70;;;;;;5098003;28;20361;-77
2022/04/27 06:52:21;;;;;;;12.93;7.20;;;7.20;91.80;;;;;;5077988;28;20101;-77
2022/04/27 06:54:46;;;;;;;13.47;6.83;;;7.30;91.80;;;;;;5095359;28;20095;-78
2022/04/27 06:57:12;;;;;;;13.60;7.83;;;7.30;91.80;;;;;;5077383;28;20054;-77
2022/04/27 06:59:38;;;;;;;14.93;7.53;;;7.40;91.80;;;;;;5077157;28;20085;-77
2022/04/27 07:02:05;;;;;;;10.73;6.73;;;7.40;91.80;;;;;;5095667;28;20039;-77
2022/04/27 07:04:35;;;;;;;14.67;7.43;;;7.50;91.80;;;;;;5095438;28;20043;-77
2022/04/27 07:07:04;;;;;;;12.33;7.13;;;7.60;91.80;;;;;;5077168;28;20020;-78
2022/04/27 07:09:31;;;;;;;15.90;7.50;;;7.70;91.70;;;;;;5095350;28;20035;-79
2022/04/27 07:11:57;;;;;;;11.83;7.03;;;7.80;91.70;;;;;;5095731;28;20023;-77
2022/04/27 07:14:23;;;;;;;13.50;7.53;;;7.80;91.70;;;;;;5095461;28;20020;-79
2022/04/27 07:16:48;;;;;;;14.83;6.73;;;7.90;91.70;;;;;;5095082;28;20021;-78
2022/04/27 07:19:14;;;;;;;15.20;7.77;;;8.00;91.70;;;;;;5095198;28;20077;-78
2022/04/27 07:21:41;;;;;;;10.33;6.03;;;8.00;91.60;;;;;;5094911;28;20032;-77
2022/04/27 07:24:07;;;;;;;10.90;5.33;;;8.00;91.50;;;;;;5094926;28;20024;-77
2022/04/27 07:26:33;;;;;;;8.97;4.83;;;8.20;91.30;;;;;;5093878;28;20081;-77
2022/04/27 07:28:59;;;;;;;11.73;5.13;;;8.30;91.10;;;;;;5076688;28;20034;-78
2022/04/27 07:31:25;;;;;;;10.60;4.53;;;8.30;91.00;;;;;;5094919;28;20032;-76
2022/04/27 07:33:52;;;;;;;9.20;3.90;;;8.40;90.90;;;;;;5094838;28;20094;-76
2022/04/27 07:36:18;;;;;;;9.73;4.00;;;8.50;90.70;;;;;;5094738;28;20032;-77
2022/04/27 07:38:43;;;;;;;7.87;4.10;;;8.50;90.50;;;;;;5094388;28;20135;-73
2022/04/27 07:41:10;;;;;;;6.63;3.93;;;8.60;90.60;;;;;;5076395;28;20060;-73
2022/04/27 07:43:35;;;;;;;7.53;4.07;;;8.60;90.10;;;;;;5094588;28;20024;-72
2022/04/27 07:46:03;;;;;;;7.93;3.60;;;8.70;89.60;;;;;;5076878;28;20025;-72
2022/04/27 07:48:32;;;;;;;4.70;3.03;;;8.80;89.30;;;;;;5094805;28;20039;-71
2022/04/27 07:51:02;;;;;;;10.23;4.00;;;8.80;88.40;;;;;;5076344;28;20105;-70
2022/04/27 07:53:28;;;;;;;7.30;3.63;;;8.80;87.80;;;;;;5076233;28;20464;-70
2022/04/27 07:55:53;;;;;;;5.97;2.60;;;8.90;87.60;;;;;;5094427;28;20154;-71
2022/04/27 07:58:19;;;;;;;6.13;2.77;;;9.00;87.20;;;;;;5076162;28;20036;-72
2022/04/27 08:00:45;;;;;;;9.63;3.33;;;9.10;86.70;;;;;;5076162;28;20074;-71
2022/04/27 08:03:10;;;;;;;7.03;3.20;;;9.10;86.40;;;;;;5060104;28;20024;-71
2022/04/27 08:05:36;;;;;;;9.10;2.43;;;9.20;85.90;;;;;;5055432;28;20033;-71
2022/04/27 08:08:01;;;;;;;6.10;1.80;;;9.20;85.70;;;;;;5072600;28;20038;-72
2022/04/27 08:10:27;;;;;;;6.53;1.80;;;9.30;85.40;;;;;;5075310;28;20028;-71
2022/04/27 08:12:54;;;;;;;3.97;1.53;;;9.40;84.60;;;;;;5093986;28;20110;-71
2022/04/27 08:15:21;;;;;;;3.70;1.53;;;9.50;84.20;;;;;;5094055;28;20448;-72
2022/04/27 08:17:53;;;;;;;6.50;2.07;;;9.50;83.50;;;;;;5093866;28;20051;-71
2022/04/27 08:23:10;;;;;;;3.60;1.23;;;9.70;82.50;;;;;;5093789;28;20407;-72
2022/04/27 08:25:36;;;;;;;3.53;1.20;;;9.80;82.20;;;;;;5075649;28;20027;-72
2022/04/27 08:28:06;;;;;;;6.10;1.77;;;9.80;81.70;;;;;;5075714;28;20058;-72
2022/04/27 08:30:37;;;;;;;3.93;1.50;;;9.90;81.20;;;;;;5075870;28;20020;-71
2022/04/27 08:33:04;;;;;;;3.20;1.63;;;10.00;80.80;;;;;;5093589;28;20375;-71
2022/04/27 08:35:34;;;;;;;4.70;1.73;;;10.10;80.10;;;;;;5093626;28;20027;-72
2022/04/27 08:38:00;;;;;;;4.83;1.67;;;10.10;79.80;;;;;;5093024;28;20051;-72
2022/04/27 08:40:27;;;;;;;7.27;1.83;;;10.30;79.80;;;;;;5059032;28;20028;-72
2022/04/27 08:42:53;;;;;;;5.07;1.73;;;10.30;79.00;;;;;;5091739;28;20024;-71
2022/04/27 08:45:19;;;;;;;5.00;2.00;;;10.40;78.60;;;;;;5100777;28;20020;-72
2022/04/27 08:47:50;;;;;;;5.68;1.70;;;10.50;78.20;;;;;;5052492;28;20487;-74
2022/04/27 08:50:19;;;;;;;4.72;1.60;;;10.50;77.60;;;;;;5090561;28;20035;-73
2022/04/27 08:52:45;;;;;;;9.30;2.05;;;10.60;77.30;;;;;;5093307;28;20483;-73
2022/04/27 08:55:14;;;;;;;5.70;2.20;;;10.70;77.50;;;;;;5093568;28;20082;-74
2022/04/27 08:57:40;;;;;;;6.73;1.83;;;10.80;77.70;;;;;;5093170;28;20028;-73
2022/04/27 09:00:22;;;;;;;8.35;1.85;;;10.90;77.90;;;;;;5093442;28;20474;-74
2022/04/27 09:02:52;;;;;;;6.43;1.85;;;11.00;77.60;;;;;;5075331;28;20020;-74
2022/04/27 09:05:22;;;;;;;5.40;1.63;;;11.00;77.00;;;;;;5085902;28;20642;-74
2022/04/27 09:07:53;;;;;;;9.88;2.47;;;11.20;76.50;;;;;;5093064;28;20499;-73
2022/04/27 09:10:21;;;;;;;8.73;2.10;;;11.30;75.70;;;;;;5061546;28;20395;-74
2022/04/27 09:12:48;;;;;;;4.40;1.75;;;11.40;75.70;;;;;;5068671;28;20127;-74
2022/04/27 09:15:15;;;;;;;3.88;1.75;;;11.50;75.60;;;;;;5073969;28;20504;-74
2022/04/27 09:23:40;;;;;;;6.68;1.73;;;11.90;75.10;;;;;;5094444;28;19943;-76
2022/04/27 09:26:19;;;;;;;4.60;1.70;;;12.10;74.60;;;;;;5057382;28;20040;-75
2022/04/27 09:28:55;;;;;;;4.28;1.58;;;12.30;74.30;;;;;;5058618;28;20036;-76
2022/04/27 09:31:34;;;;;;;6.40;1.95;;;12.50;73.30;;;;;;5074728;28;20025;-78
2022/04/27 09:34:02;;;;;;;5.13;1.50;;;12.70;72.40;;;;;;5053419;28;20060;-73
2022/04/27 09:36:29;;;;;;;6.68;1.73;;;12.80;71.90;;;;;;5074290;28;20046;-74
2022/04/27 09:38:57;;;;;;;5.35;1.75;;;13.10;71.10;;;;;;5091855;28;20048;-79
2022/04/27 09:42:03;;;;;;;5.72;1.67;;;13.40;70.30;;;;;;5055829;28;20393;-78
2022/04/27 09:44:30;;;;;;;5.40;1.35;;;13.60;68.20;;;;;;5031690;28;20039;-78
2022/04/27 09:46:57;;;;;;;7.28;1.77;;;13.70;67.60;;;;;;5054711;28;20044;-79
2022/04/27 09:49:23;;;;;;;4.00;1.70;;;13.80;67.50;;;;;;5073241;28;20058;-79
2022/04/27 09:51:54;;;;;;;9.98;1.83;;;13.90;67.20;;;;;;5075825;28;20036;-78
2022/04/27 09:54:20;;;;;;;6.88;1.80;;;14.00;66.50;;;;;;5075402;28;20061;-78
2022/04/27 09:57:00;;;;;;;4.80;1.80;;;14.10;65.80;;;;;;5077086;28;20032;-78
2022/04/27 09:59:30;;;;;;;5.50;1.55;;;14.20;65.20;;;;;;5058453;28;20111;-79
2022/04/27 10:02:04;;;;;;;5.13;2.08;;;14.30;64.70;;;;;;5076132;28;20067;-79
2022/04/27 10:04:30;;;;;;;5.07;1.65;;;14.40;63.70;;;;;;5057984;28;20054;-78
2022/04/27 10:07:01;;;;;;;4.45;1.60;;;14.50;63.20;;;;;;5058320;28;20112;-79
2022/04/27 10:09:28;;;;;;;4.05;1.63;;;14.50;62.60;;;;;;5076138;28;20461;-78
2022/04/27 10:11:59;;;;;;;6.35;2.03;;;14.60;62.00;;;;;;5076113;28;20025;-78
2022/04/27 10:14:28;;;;;;;5.47;1.95;;;14.80;61.30;;;;;;5057889;28;20154;-78
2022/04/27 10:16:54;;;;;;;6.38;1.35;;;14.90;60.50;;;;;;5075779;28;20029;-79
2022/04/27 10:19:21;;;;;;;5.13;1.30;;;15.10;60.00;;;;;;5057738;28;20036;-78
2022/04/27 10:21:57;;;;;;;5.60;1.20;;;15.30;59.50;;;;;;5057755;28;20032;-76
2022/04/27 10:24:43;;;;;;;3.47;1.10;;;15.60;59.00;;;;;;5057695;28;20405;-78
2022/04/27 10:27:21;;;;;;;4.95;1.52;;;16.10;57.80;;;;;;5057767;28;20025;-79
2022/04/27 10:29:51;;;;;;;4.43;1.25;;;16.50;57.10;;;;;;5075699;28;20020;-79
2022/04/27 10:32:40;;;;;;;4.60;1.40;;;17.00;56.90;;;;;;5057632;28;20373;-79
2022/04/27 10:35:12;;;;;;;7.00;1.63;;;17.70;55.60;;;;;;5057651;28;20464;-77
2022/04/27 10:38:08;;;;;;;4.97;1.60;;;18.20;54.50;;;;;;5075510;28;20036;-79
2022/04/27 10:40:41;;;;;;;8.05;2.38;;;18.60;54.30;;;;;;5043738;28;20052;-78
2022/04/27 10:43:09;;;;;;;3.13;1.00;;;18.90;52.30;;;;;;5075475;28;20020;-78
2022/04/27 10:45:40;;;;;;;4.25;1.45;;;19.10;52.60;;;;;;5057696;28;20112;-77
2022/04/27 10:48:07;;;;;;;3.88;1.20;;;19.40;52.10;;;;;;5057345;28;20035;-80
2022/04/27 10:50:37;;;;;;;4.18;1.20;;;19.40;51.60;;;;;;5057526;28;20029;-80
2022/04/27 10:53:22;;;;;;;4.35;1.30;;;19.90;51.00;;;;;;5057491;28;20081;-79
2022/04/27 10:55:53;;;;;;;4.18;1.40;;;20.60;50.30;;;;;;5057401;28;20025;-79
2022/04/27 10:58:22;;;;;;;3.65;1.10;;;21.30;49.30;;;;;;5075124;28;20021;-77
2022/04/27 11:01:02;;;;;;;3.78;1.10;;;22.10;48.10;;;;;;5075280;28;20021;-78
2022/04/27 11:03:30;;;;;;;3.63;1.20;;;22.70;46.40;;;;;;5057579;28;20421;-80
2022/04/27 11:06:00;;;;;;;4.32;1.02;;;23.30;45.30;;;;;;5057187;28;20020;-80
2022/04/27 11:08:46;;;;;;;4.68;1.73;;;23.60;44.70;;;;;;5075163;28;20028;-80
2022/04/27 11:11:15;;;;;;;3.70;0.80;;;24.20;43.70;;;;;;5074944;28;20414;-80
2022/04/27 11:13:41;;;;;;;4.78;1.10;;;24.80;43.90;;;;;;5075069;28;20028;-79
2022/04/27 11:16:12;;;;;;;3.55;0.70;;;25.30;42.30;;;;;;5074898;28;20029;-79
2022/04/27 11:18:57;;;;;;;4.00;0.98;;;25.70;41.70;;;;;;5074680;28;20119;-78
2022/04/27 11:21:25;;;;;;;6.53;1.02;;;26.10;40.00;;;;;;5073537;28;20033;-82
2022/04/27 11:23:53;;;;;;;3.10;0.93;;;26.30;39.60;;;;;;5056472;28;20040;-82
2022/04/27 11:26:19;;;;;;;5.10;1.02;;;26.50;39.20;;;;;;5074395;28;20381;-81
2022/04/27 11:28:46;;;;;;;3.38;1.00;;;27.00;39.00;;;;;;5056788;28;20024;-81
2022/04/27 11:31:15;;;;;;;3.70;1.08;;;27.40;38.60;;;;;;5056559;28;20036;-81
2022/04/27 11:33:41;;;;;;;4.93;1.10;;;27.80;37.60;;;;;;5056724;28;20027;-82
2022/04/27 11:36:19;;;;;;;3.72;1.33;;;28.10;36.80;;;;;;5056701;28;20036;-78
2022/04/27 11:38:45;;;;;;;3.35;0.88;;;28.20;36.20;;;;;;5058483;28;20059;-79
2022/04/27 11:41:15;;;;;;;5.03;1.17;;;28.30;35.40;;;;;;5056471;28;20042;-81
2022/04/27 11:43:40;;;;;;;2.97;0.80;;;28.50;35.20;;;;;;5056502;28;20031;-79
2022/04/27 11:46:08;;;;;;;3.53;1.08;;;28.70;34.90;;;;;;5074089;28;20032;-79
2022/04/27 11:48:34;;;;;;;5.57;1.40;;;29.00;34.40;;;;;;5074106;28;20445;-80
2022/04/27 11:51:02;;;;;;;4.68;1.30;;;29.30;34.20;;;;;;5074081;28;20131;-80
2022/04/27 11:53:28;;;;;;;3.90;1.00;;;29.50;33.70;;;;;;5072979;28;20455;-79
2022/04/27 11:55:54;;;;;;;4.53;1.30;;;29.70;33.30;;;;;;5074179;28;20101;-77
2022/04/27 11:58:25;;;;;;;4.78;0.80;;;29.30;33.20;;;;;;5056314;28;20056;-81
2022/04/27 12:00:58;;;;;;;3.05;1.00;;;29.10;33.20;;;;;;5073935;28;20017;-80
2022/04/27 12:03:25;;;;;;;;;;;29.00;32.60;;;;;;5074442;28;20186;-82
2022/04/27 12:05:52;;;;;;;2.83;0.75;;;29.10;33.10;;;;;;5074200;28;19912;-83
2022/04/27 12:08:20;;;;;;;3.10;0.70;;;29.20;33.60;;;;;;5073951;28;20039;-82
2022/04/27 12:10:46;;;;;;;3.35;1.10;;;29.30;33.30;;;;;;5056105;28;20065;-81
2022/04/27 12:13:13;;;;;;;2.80;0.85;;;29.30;33.10;;;;;;5055438;28;20025;-82
2022/04/27 12:15:42;;;;;;;2.60;1.00;;;29.20;32.90;;;;;;5039592;28;20595;-84
2022/04/27 12:18:17;;;;;;;2.10;0.90;;;29.10;32.70;;;;;;5055795;28;20503;-85
2022/04/27 12:20:44;;;;;;;3.55;1.02;;;29.10;32.70;;;;;;5073760;28;20376;-84
2022/04/27 12:23:10;;;;;;;4.18;0.93;;;29.00;32.60;;;;;;5073637;28;20041;-76
2022/04/27 12:25:36;;;;;;;4.82;0.98;;;28.90;32.30;;;;;;5056011;28;20020;-80
2022/04/27 12:28:04;;;;;;;3.28;0.90;;;28.70;32.20;;;;;;5055715;28;20393;-81
2022/04/27 12:30:30;;;;;;;4.07;0.90;;;28.60;32.10;;;;;;5055854;28;20107;-80
2022/04/27 12:32:57;;;;;;;3.25;0.90;;;28.50;32.20;;;;;;5073605;28;20539;-83
2022/04/27 12:38:19;;;;;;;2.35;0.90;;;28.40;32.20;;;;;;5073670;28;20040;-79
2022/04/27 12:40:44;;;;;;;5.53;1.00;;;28.40;32.30;;;;;;5051000;28;20028;-82
2022/04/27 12:43:13;;;;;;;3.97;0.95;;;28.40;32.30;;;;;;5075000;28;20388;-79
2022/04/27 12:45:40;;;;;;;4.15;1.05;;;28.30;32.00;;;;;;5093646;28;20102;-81
2022/04/27 12:48:06;;;;;;;5.78;1.52;;;28.20;31.90;;;;;;5074771;28;20024;-82
2022/04/27 12:50:33;;;;;;;4.00;1.08;;;28.20;31.90;;;;;;5075740;28;20445;-79
2022/04/27 12:53:10;;;;;;;4.63;1.10;;;28.20;32.60;;;;;;5075687;28;20024;-79
2022/04/27 12:55:39;;;;;;;2.20;1.05;;;28.30;31.90;;;;;;5093928;28;20028;-81
2022/04/27 12:58:05;;;;;;;4.95;1.20;;;28.30;31.90;;;;;;5075230;28;20028;-80
2022/04/27 13:00:46;;;;;;;3.38;1.20;;;28.40;31.90;;;;;;5075482;28;20029;-83
2022/04/27 13:03:13;;;;;;;6.55;1.73;;;28.50;31.70;;;;;;5058701;28;20081;-82
2022/04/27 13:05:43;;;;;;;2.38;0.93;;;28.50;31.80;;;;;;5075350;28;20052;-82
2022/04/27 13:08:09;;;;;;;4.03;1.02;;;28.60;31.80;;;;;;5093183;28;20042;-81
2022/04/27 13:13:22;;;;;;;3.85;1.13;;;28.90;31.70;;;;;;5093607;28;20093;-80
2022/04/27 13:15:49;;;;;;;2.55;0.93;;;28.90;31.40;;;;;;5075882;28;20496;-79
2022/04/27 13:18:15;;;;;;;3.35;1.30;;;28.80;31.50;;;;;;5093458;28;20037;-79
2022/04/27 13:20:43;;;;;;;4.18;1.27;;;28.70;31.20;;;;;;5058723;28;20016;-81